Terminal Aerodrome Forecast
Issued by NWS

Home | Current Version | Previous Version | Text Only | Print | Product List | Glossary On
Versions: 1 2 3 4 5 6 7 8 9 10 11 12 13 14 15 16 17 18 19 20
000
FTUS43 KAPX 221720
TAFMBL
TAF
KMBL 221720Z 2218/2318 25011G20KT P6SM BKN040
     FM230000 VRB03KT P6SM BKN050
     FM230800 00000KT 3SM BR VCSH BKN015
     FM230900 00000KT 1SM BR BKN008
     FM231400 13005KT P6SM OVC015=

USA.gov is the U.S. government's official web portal to all federal, state and local government web resources and services.